»·PEaware :: N118LW KLAX-MMML

N118LW :: KLAX-MMML

FLIGHT INFORMATION

Flight Status: Arrived
Operator: Privately registered:
United States
More flights under this callsign
Pilot: Lee W. (44)
Aircraft: Unknown
(FA7X)
More flights by this aircraft type
Origin: KLAX Los Angeles Intl
United States
Destination: MMML Gen Rodolfo Sanchez Taboada
Mexico
More flights between these airports :: More routes between these airports
Route: +LAXX6 IPL
File this flight plan on PilotEdge
Remarks:
Altitude:
(Current/Filed)
25,000ft
Speed:
(Current/Filed)
450kts
Departed: 23-Nov-13 08:59 AM
Arrived: 23-Nov-13 09:39 AM
Distance/Time
Traveled:
177nm/0:40
Distance/Time
To Go:
Arrived

Flight Plot

Page will automatically refresh every two minutes.

Flight plan parsing failed; only flown route is shown


Map Options




Map Legend


Flown Route
Filed Route
Departure Airport
Arrival Airport
Navaid (VOR, NDB)
Fix

Horizontal Profiles

Position Reports

Time Latitude Longitude Heading Altitude Ground
Speed
23-Nov-13 08:36 33.934309 -118.394351 177 130ft 0kts
23-Nov-13 08:37 33.934309 -118.394351 177 130ft 0kts
23-Nov-13 08:38 33.934309 -118.394351 177 130ft 0kts
23-Nov-13 08:39 33.934309 -118.394351 177 130ft 0kts
23-Nov-13 08:40 33.934309 -118.394351 177 130ft 0kts
23-Nov-13 08:41 33.934309 -118.394351 177 130ft 0kts
23-Nov-13 08:42 33.934309 -118.394351 177 130ft 0kts
23-Nov-13 08:43 33.934309 -118.394351 177 130ft 0kts
23-Nov-13 08:44 33.934309 -118.394351 177 130ft 0kts
23-Nov-13 08:45 33.934309 -118.394351 177 130ft 0kts
23-Nov-13 08:46 33.934309 -118.394351 177 130ft 0kts
23-Nov-13 08:47 33.934309 -118.394351 177 130ft 0kts
23-Nov-13 08:48 33.934309 -118.394351 177 130ft 0kts
23-Nov-13 08:49 33.934309 -118.394351 177 130ft 0kts
23-Nov-13 08:50 33.934309 -118.394351 177 130ft 0kts
23-Nov-13 08:51 33.934309 -118.394351 177 130ft 0kts
23-Nov-13 08:52 33.934309 -118.394351 177 130ft 0kts
23-Nov-13 08:53 33.934225 -118.394031 43 130ft 8kts
23-Nov-13 08:54 33.935338 -118.390565 85 130ft 25kts
23-Nov-13 08:55 33.935996 -118.384020 82 130ft 23kts
23-Nov-13 08:56 33.936429 -118.382818 2 130ft 0kts
23-Nov-13 08:57 33.936481 -118.382815 2 130ft 3kts
23-Nov-13 08:58 33.936527 -118.391061 263 130ft 141kts
23-Nov-13 08:59 33.929081 -118.461774 250 1017ft 253kts
23-Nov-13 09:00 33.888345 -118.531864 233 3297ft 263kts
23-Nov-13 09:01 33.833908 -118.583373 165 5830ft 268kts
23-Nov-13 09:02 33.766635 -118.546273 153 8371ft 272kts
23-Nov-13 09:03 33.699960 -118.505099 144 10825ft 279kts
23-Nov-13 09:04 33.695828 -118.421741 76 13267ft 300kts
23-Nov-13 09:05 33.714027 -118.334371 75 15479ft 315kts
23-Nov-13 09:06 33.733793 -118.253979 74 18034ft 331kts
23-Nov-13 09:07 33.755822 -118.164858 72 21047ft 369kts
23-Nov-13 09:08 33.768351 -118.068306 107 23899ft 393kts
23-Nov-13 09:09 33.713935 -117.977127 132 25098ft 441kts
23-Nov-13 09:10 33.639766 -117.886106 134 25091ft 461kts
23-Nov-13 09:11 33.560756 -117.791511 135 25090ft 461kts
23-Nov-13 09:12 33.469775 -117.684655 135 25094ft 462kts
23-Nov-13 09:13 33.385043 -117.585542 135 25099ft 465kts
23-Nov-13 09:14 33.293856 -117.479456 136 25099ft 464kts
23-Nov-13 09:15 33.235287 -117.348565 101 25098ft 463kts
23-Nov-13 09:16 33.215959 -117.207938 98 25085ft 461kts
23-Nov-13 09:17 33.200843 -117.083638 97 25080ft 461kts
23-Nov-13 09:18 33.183583 -116.940983 97 25080ft 460kts
23-Nov-13 09:19 33.170660 -116.830048 98 25080ft 460kts
23-Nov-13 09:20 33.154481 -116.695854 98 25080ft 460kts
23-Nov-13 09:21 33.123182 -116.567570 125 24017ft 453kts
23-Nov-13 09:22 33.050223 -116.458704 129 21817ft 438kts
23-Nov-13 09:23 32.979172 -116.358206 130 19685ft 426kts
23-Nov-13 09:24 32.907526 -116.257549 130 18085ft 417kts
23-Nov-13 09:25 32.833501 -116.153857 130 18885ft 426kts
23-Nov-13 09:26 32.768642 -116.040434 100 19129ft 428kts
23-Nov-13 09:27 32.758977 -115.910536 91 18741ft 354kts
23-Nov-13 09:28 32.756672 -115.808948 90 16553ft 323kts
23-Nov-13 09:29 32.754221 -115.706162 90 13624ft 317kts
23-Nov-13 09:30 32.751685 -115.606141 91 10724ft 310kts
23-Nov-13 09:31 32.746661 -115.510554 110 7867ft 304kts
23-Nov-13 09:32 32.710409 -115.422677 117 5118ft 290kts
23-Nov-13 09:33 32.673971 -115.354612 128 5144ft 202kts
23-Nov-13 09:34 32.641562 -115.306876 128 4362ft 173kts
23-Nov-13 09:35 32.613122 -115.265049 128 2827ft 166kts
23-Nov-13 09:36 32.588968 -115.221240 83 1011ft 160kts
23-Nov-13 09:37 32.619056 -115.215593 290 701ft 146kts
23-Nov-13 09:38 32.632438 -115.246238 234 78ft 16kts
23-Nov-13 09:39 32.628871 -115.247114 209 78ft 0kts

Navigation Log

Ident Type
Flight plan parsing failed, navigation log unavailable